createdAt,value
2024-05-09T00:01:29.003Z,78.36
2024-05-09T00:04:04.919Z,78.42
2024-05-09T00:06:37.436Z,78.70
2024-05-09T00:09:09.669Z,78.88
2024-05-09T00:11:42.098Z,78.90
2024-05-09T00:14:14.796Z,78.87
2024-05-09T00:16:48.534Z,79.19
2024-05-09T00:19:22.273Z,79.09
2024-05-09T00:21:54.749Z,79.55
2024-05-09T00:24:27.313Z,79.45
2024-05-09T00:27:01.214Z,79.47
2024-05-09T00:29:36.301Z,79.87
2024-05-09T00:32:10.060Z,79.85
2024-05-09T00:34:42.527Z,79.67
2024-05-09T00:37:14.906Z,79.77
2024-05-09T00:39:47.593Z,80.02
2024-05-09T00:42:20.019Z,80.13
2024-05-09T00:44:52.409Z,80.27
2024-05-09T00:47:25.091Z,80.55
2024-05-09T00:49:58.224Z,80.52
2024-05-09T00:52:36.524Z,80.56
2024-05-09T00:55:10.272Z,80.84
2024-05-09T00:57:42.750Z,80.93
2024-05-09T01:00:26.063Z,80.95
2024-05-09T01:03:04.241Z,81.03
2024-05-09T01:05:39.192Z,81.34
2024-05-09T01:08:12.531Z,81.55
2024-05-09T01:10:47.899Z,81.55
2024-05-09T01:13:21.506Z,81.74
2024-05-09T01:15:54.212Z,82.40
2024-05-09T01:18:26.751Z,82.73
2024-05-09T01:20:59.084Z,82.86
2024-05-09T01:23:34.653Z,82.98
2024-05-09T01:26:07.514Z,82.99
2024-05-09T01:28:39.825Z,83.71
2024-05-09T01:31:15.915Z,83.73
2024-05-09T01:33:48.371Z,83.99
2024-05-09T01:36:20.969Z,84.61
2024-05-09T01:38:53.743Z,84.65
2024-05-09T01:41:26.130Z,84.60
2024-05-09T01:43:58.744Z,84.67
2024-05-09T01:46:32.868Z,84.92
2024-05-09T01:49:05.476Z,85.21
2024-05-09T01:51:37.895Z,85.60
2024-05-09T01:54:10.096Z,85.97
2024-05-09T01:56:42.525Z,86.10
2024-05-09T01:59:15.072Z,86.28
2024-05-09T02:01:56.581Z,86.44
2024-05-09T02:04:32.013Z,86.82
2024-05-09T02:07:05.924Z,86.96
2024-05-09T02:09:38.117Z,87.03
2024-05-09T02:12:10.949Z,87.43
2024-05-09T02:14:43.474Z,88.12
2024-05-09T02:17:16.384Z,88.63
2024-05-09T02:19:48.990Z,88.75
2024-05-09T02:22:21.605Z,88.99
2024-05-09T02:24:54.189Z,89.14
2024-05-09T02:27:26.967Z,89.80
2024-05-09T02:30:01.204Z,90.22
2024-05-09T02:32:35.835Z,90.75
2024-05-09T02:35:09.574Z,91.39
2024-05-09T02:37:42.283Z,91.34
2024-05-09T02:40:18.151Z,91.74
2024-05-09T02:42:54.110Z,92.13
2024-05-09T02:45:26.366Z,92.47
2024-05-09T02:47:59.135Z,93.03
2024-05-09T02:50:38.536Z,93.13
2024-05-09T02:53:12.725Z,93.32
2024-05-09T02:55:45.217Z,93.28
2024-05-09T02:58:17.554Z,93.68
2024-05-09T03:00:50.063Z,93.69
2024-05-09T03:03:22.712Z,93.77
2024-05-09T03:05:55.599Z,93.94
2024-05-09T03:08:28.088Z,94.02
2024-05-09T03:11:02.770Z,94.08
2024-05-09T03:13:39.700Z,93.64
2024-05-09T03:16:12.343Z,93.57
2024-05-09T03:18:45.181Z,93.32
2024-05-09T03:21:17.511Z,93.44
2024-05-09T03:23:50.134Z,93.94
2024-05-09T03:26:22.736Z,93.87
2024-05-09T03:28:55.510Z,93.68
2024-05-09T03:31:28.136Z,93.59
2024-05-09T03:34:02.905Z,93.67
2024-05-09T03:36:35.711Z,93.87
2024-05-09T03:39:08.380Z,93.59
2024-05-09T03:41:41.017Z,93.62
2024-05-09T03:44:13.646Z,93.53
2024-05-09T03:46:46.105Z,93.49
2024-05-09T03:49:18.871Z,93.38
2024-05-09T03:51:51.389Z,93.10
2024-05-09T03:54:24.768Z,92.90
2024-05-09T03:56:57.498Z,92.55
2024-05-09T03:59:31.867Z,92.24
2024-05-09T04:02:06.745Z,92.13
2024-05-09T04:04:41.941Z,91.65
2024-05-09T04:07:14.292Z,91.09
2024-05-09T04:09:46.738Z,90.60
2024-05-09T04:12:19.216Z,90.08
2024-05-09T04:14:53.138Z,89.74
2024-05-09T04:17:25.971Z,89.04
2024-05-09T04:19:58.805Z,88.60
2024-05-09T04:22:36.466Z,88.15
2024-05-09T04:25:09.748Z,87.90
2024-05-09T04:27:42.210Z,87.14
2024-05-09T04:30:21.783Z,86.94
2024-05-09T04:33:03.949Z,86.18
2024-05-09T04:35:36.457Z,85.79
2024-05-09T04:38:09.731Z,85.07
2024-05-09T04:40:42.227Z,84.88
2024-05-09T04:43:22.979Z,84.53
2024-05-09T04:45:56.332Z,84.18
2024-05-09T04:48:38.018Z,83.95
2024-05-09T04:51:10.954Z,82.89
2024-05-09T04:53:43.635Z,81.87
2024-05-09T04:56:16.186Z,81.30
2024-05-09T04:58:49.735Z,80.23
2024-05-09T05:01:22.179Z,80.07
2024-05-09T05:03:56.154Z,79.43
2024-05-09T05:06:30.633Z,79.10
2024-05-09T05:09:03.324Z,78.90
2024-05-09T05:11:35.590Z,78.52
2024-05-09T05:14:09.247Z,77.97
2024-05-09T05:16:41.729Z,77.46
2024-05-09T05:19:16.975Z,76.74
2024-05-09T05:21:50.069Z,75.72
2024-05-09T05:24:22.523Z,73.81
2024-05-09T05:26:54.897Z,73.31
2024-05-09T05:29:27.694Z,72.94
2024-05-09T05:32:02.292Z,71.91
2024-05-09T05:34:35.604Z,71.89
2024-05-09T05:37:08.378Z,71.33
2024-05-09T05:39:40.854Z,71.02
2024-05-09T05:42:25.777Z,70.81
2024-05-09T05:44:58.046Z,70.62
2024-05-09T05:47:32.984Z,70.65
2024-05-09T05:50:14.482Z,70.58
2024-05-09T05:52:52.945Z,70.52
2024-05-09T05:55:25.669Z,70.41
2024-05-09T05:57:58.283Z,69.72
2024-05-09T06:00:38.684Z,68.30
2024-05-09T06:03:18.608Z,68.65
2024-05-09T06:05:51.539Z,67.97
2024-05-09T06:08:25.175Z,68.25
2024-05-09T06:11:01.565Z,68.45
2024-05-09T06:13:35.831Z,68.22
2024-05-09T06:16:09.218Z,67.00
2024-05-09T06:18:41.706Z,67.02
2024-05-09T06:21:14.604Z,67.08
2024-05-09T06:23:49.482Z,66.34
2024-05-09T06:26:21.838Z,66.21
2024-05-09T06:28:57.889Z,65.80
2024-05-09T06:31:32.605Z,65.85
2024-05-09T06:34:05.831Z,65.92
2024-05-09T06:36:39.484Z,65.52
2024-05-09T06:39:11.992Z,65.49
2024-05-09T06:41:44.312Z,65.66
2024-05-09T06:44:17.047Z,65.45
2024-05-09T06:46:50.117Z,65.51
2024-05-09T06:49:23.034Z,65.92
2024-05-09T06:51:55.238Z,65.90
2024-05-09T06:54:27.714Z,66.03
2024-05-09T06:57:02.812Z,65.99
2024-05-09T06:59:38.274Z,65.86
2024-05-09T07:02:10.859Z,66.01
2024-05-09T07:04:43.460Z,65.58
2024-05-09T07:07:16.945Z,65.85
2024-05-09T07:09:49.402Z,66.09
2024-05-09T07:12:23.076Z,66.34
2024-05-09T07:14:55.825Z,65.95
2024-05-09T07:17:28.290Z,65.94
2024-05-09T07:20:01.678Z,65.56
2024-05-09T07:22:35.563Z,65.98
2024-05-09T07:25:08.590Z,65.71
2024-05-09T07:27:41.102Z,65.62
2024-05-09T07:30:22.840Z,65.63
2024-05-09T07:33:04.671Z,66.11
2024-05-09T07:35:37.660Z,66.06
2024-05-09T07:38:11.091Z,66.21
2024-05-09T07:40:43.556Z,65.44
2024-05-09T07:43:16.481Z,64.30
2024-05-09T07:45:53.641Z,63.88
2024-05-09T07:50:00.959Z,64.29
2024-05-09T07:53:58.458Z,64.46
2024-05-09T07:56:36.716Z,64.16
2024-05-09T07:59:09.687Z,64.55
2024-05-09T08:01:42.511Z,64.75
2024-05-09T08:04:15.140Z,64.52
2024-05-09T08:06:47.891Z,64.17
2024-05-09T08:09:21.423Z,64.06
2024-05-09T08:11:54.847Z,63.65
2024-05-09T08:14:27.472Z,63.40
2024-05-09T08:17:03.414Z,64.24
2024-05-09T08:19:38.261Z,62.71
2024-05-09T08:22:10.872Z,60.73
2024-05-09T08:24:43.690Z,60.39
2024-05-09T08:27:16.233Z,60.59
2024-05-09T08:29:48.963Z,60.16
2024-05-09T08:32:21.968Z,59.85
2024-05-09T08:34:54.507Z,59.54
2024-05-09T08:37:32.847Z,59.83
2024-05-09T08:40:23.462Z,59.65
2024-05-09T08:43:11.909Z,59.68
2024-05-09T08:45:47.086Z,60.55
2024-05-09T08:48:21.049Z,60.30
2024-05-09T08:50:56.505Z,60.67
2024-05-09T08:53:33.043Z,61.07
2024-05-09T08:56:07.437Z,60.37
2024-05-09T08:58:40.189Z,60.11
2024-05-09T09:01:13.061Z,60.35
2024-05-09T09:03:46.681Z,60.98
2024-05-09T09:06:22.021Z,60.60
2024-05-09T09:08:55.077Z,60.32
2024-05-09T09:11:28.461Z,60.74
2024-05-09T09:14:01.508Z,57.69
2024-05-09T09:16:37.892Z,57.03
2024-05-09T09:19:10.673Z,57.23
2024-05-09T09:21:43.615Z,57.06
2024-05-09T09:24:16.576Z,56.81
2024-05-09T09:26:51.286Z,56.88
2024-05-09T09:29:25.747Z,56.96
2024-05-09T09:32:05.552Z,57.07
2024-05-09T09:34:38.782Z,56.94
2024-05-09T09:37:12.835Z,56.96
2024-05-09T09:39:48.895Z,57.08
2024-05-09T09:42:23.910Z,57.12
2024-05-09T09:45:04.287Z,56.23
2024-05-09T09:47:40.149Z,56.69
2024-05-09T09:50:17.193Z,56.71
2024-05-09T09:52:57.491Z,56.60
2024-05-09T09:55:32.026Z,56.71
2024-05-09T09:58:09.639Z,56.62
2024-05-09T10:00:44.941Z,56.57
2024-05-09T10:03:18.081Z,55.34
2024-05-09T10:05:51.086Z,55.43
2024-05-09T10:08:26.002Z,55.30
2024-05-09T10:10:58.924Z,55.16
2024-05-09T10:13:37.800Z,56.44
2024-05-09T10:16:15.045Z,56.08
2024-05-09T10:18:48.478Z,55.79
2024-05-09T10:21:22.889Z,55.89
2024-05-09T10:24:04.088Z,56.12
2024-05-09T10:26:38.958Z,54.88
2024-05-09T10:29:16.766Z,53.45
2024-05-09T10:31:50.232Z,53.39
2024-05-09T10:34:24.427Z,52.66
2024-05-09T10:36:58.895Z,53.64
2024-05-09T10:39:39.246Z,54.45
2024-05-09T10:42:14.338Z,53.31
2024-05-09T10:44:47.415Z,53.90
2024-05-09T10:47:20.683Z,53.90
2024-05-09T10:49:54.460Z,53.91
2024-05-09T10:52:27.595Z,53.50
2024-05-09T10:55:05.442Z,53.68
2024-05-09T10:57:43.688Z,54.02
2024-05-09T11:00:27.017Z,53.29
2024-05-09T11:03:03.594Z,53.38
2024-05-09T11:05:36.934Z,53.13
2024-05-09T11:08:10.689Z,53.61
2024-05-09T11:10:45.176Z,53.88
2024-05-09T11:13:27.159Z,53.94
2024-05-09T11:16:02.537Z,53.44
2024-05-09T11:18:38.848Z,53.65
2024-05-09T11:21:15.946Z,53.47
2024-05-09T11:23:49.599Z,53.90
2024-05-09T11:26:25.566Z,53.41
2024-05-09T11:28:58.507Z,52.62
2024-05-09T11:31:32.015Z,52.29
2024-05-09T11:34:05.922Z,52.55
2024-05-09T11:36:40.013Z,52.54
2024-05-09T11:39:14.971Z,52.49
2024-05-09T11:41:48.187Z,51.85
2024-05-09T11:44:21.355Z,51.79
2024-05-09T11:46:54.431Z,51.60
2024-05-09T11:49:32.477Z,51.88
2024-05-09T11:52:09.531Z,52.31
2024-05-09T11:54:42.774Z,52.32
2024-05-09T11:57:15.313Z,52.32
2024-05-09T11:59:48.192Z,52.12
2024-05-09T12:02:21.402Z,52.32
2024-05-09T12:04:54.690Z,52.52
2024-05-09T12:07:27.815Z,51.80
2024-05-09T12:10:07.864Z,52.71
2024-05-09T12:12:42.523Z,52.36
2024-05-09T12:15:15.710Z,51.72
2024-05-09T12:17:50.947Z,51.36
2024-05-09T12:20:32.375Z,51.64
2024-05-09T12:23:10.842Z,51.47
2024-05-09T12:25:44.351Z,51.82
2024-05-09T12:28:19.683Z,51.37
2024-05-09T12:30:52.781Z,50.51
2024-05-09T12:33:26.873Z,50.93
2024-05-09T12:36:02.233Z,50.52
2024-05-09T12:38:35.516Z,49.88
2024-05-09T12:41:10.519Z,49.13
2024-05-09T12:43:43.590Z,48.88
2024-05-09T12:46:20.474Z,49.33
2024-05-09T12:48:54.423Z,49.55
2024-05-09T12:51:27.611Z,50.06
2024-05-09T12:54:03.488Z,50.27
2024-05-09T12:56:36.210Z,50.30
2024-05-09T12:59:09.443Z,50.81
2024-05-09T13:01:42.754Z,50.91
2024-05-09T13:04:15.968Z,50.76
2024-05-09T13:06:49.533Z,52.34
2024-05-09T13:09:22.400Z,52.52
2024-05-09T13:11:55.209Z,52.59
2024-05-09T13:14:28.354Z,51.94
2024-05-09T13:17:04.439Z,52.93
2024-05-09T13:19:37.531Z,53.12
2024-05-09T13:22:10.618Z,53.61
2024-05-09T13:24:43.634Z,53.84
2024-05-09T13:27:58.771Z,53.77
2024-05-09T13:30:39.562Z,53.58
2024-05-09T13:33:15.910Z,53.55
2024-05-09T13:35:50.935Z,54.15
2024-05-09T13:38:24.614Z,54.83
2024-05-09T13:40:57.754Z,54.35
2024-05-09T13:43:34.643Z,54.26
2024-05-09T13:46:08.072Z,53.99
2024-05-09T13:48:40.945Z,53.87
2024-05-09T13:51:14.186Z,53.78
2024-05-09T13:53:46.988Z,55.24
2024-05-09T13:56:19.695Z,54.79
2024-05-09T13:58:52.546Z,54.96
2024-05-09T14:01:26.343Z,53.89
2024-05-09T14:03:59.065Z,54.30
2024-05-09T14:06:34.905Z,53.65
2024-05-09T14:09:09.839Z,54.14
2024-05-09T14:11:42.709Z,54.72
2024-05-09T14:14:15.631Z,54.79
2024-05-09T14:16:48.420Z,54.20
2024-05-09T14:19:22.849Z,55.79
2024-05-09T14:21:56.486Z,54.45
2024-05-09T14:24:29.470Z,52.77
2024-05-09T14:27:03.118Z,53.42
2024-05-09T14:29:36.731Z,53.71
2024-05-09T14:32:10.207Z,53.93
2024-05-09T14:34:43.359Z,53.81
2024-05-09T14:37:16.667Z,53.38
2024-05-09T14:39:50.226Z,53.82
2024-05-09T14:42:23.071Z,53.79
2024-05-09T14:44:56.636Z,53.72
2024-05-09T14:47:30.085Z,53.77
2024-05-09T14:50:06.741Z,54.57
2024-05-09T14:52:40.005Z,54.03
2024-05-09T14:55:13.389Z,54.31
2024-05-09T14:57:46.494Z,53.94
2024-05-09T15:00:26.328Z,53.59
2024-05-09T15:03:06.899Z,54.17
2024-05-09T15:05:40.107Z,54.59
2024-05-09T15:08:13.215Z,54.19
2024-05-09T15:10:47.312Z,54.28
2024-05-09T15:13:22.027Z,54.17
2024-05-09T15:15:56.202Z,54.01
2024-05-09T15:18:30.446Z,54.31
2024-05-09T15:21:06.287Z,54.36
2024-05-09T15:23:39.331Z,54.61
2024-05-09T15:26:12.523Z,54.74
2024-05-09T15:28:47.341Z,54.48
2024-05-09T15:31:20.531Z,54.51
2024-05-09T15:33:53.445Z,55.14
2024-05-09T15:36:31.223Z,54.63
2024-05-09T15:39:06.611Z,53.60
2024-05-09T15:41:40.228Z,54.14
2024-05-09T15:44:14.006Z,54.21
2024-05-09T15:46:47.067Z,54.62
2024-05-09T15:49:20.263Z,54.69
2024-05-09T15:51:53.577Z,54.47
2024-05-09T15:54:27.758Z,53.75
2024-05-09T15:57:05.056Z,53.42
2024-05-09T15:59:38.153Z,53.54
2024-05-09T16:02:11.860Z,53.55
2024-05-09T16:04:45.061Z,53.78
2024-05-09T16:07:20.012Z,53.11
2024-05-09T16:09:53.508Z,53.51
2024-05-09T16:12:26.666Z,53.40
2024-05-09T16:15:00.736Z,53.09
2024-05-09T16:17:34.332Z,53.08
2024-05-09T16:20:14.856Z,53.57
2024-05-09T16:22:51.629Z,53.04
2024-05-09T16:25:27.971Z,53.13
2024-05-09T16:28:09.932Z,53.33
2024-05-09T16:30:47.035Z,53.26
2024-05-09T16:33:23.933Z,53.21
2024-05-09T16:36:02.296Z,52.86
2024-05-09T16:38:37.018Z,53.47
2024-05-09T16:41:10.914Z,53.90
2024-05-09T16:43:43.990Z,53.80
2024-05-09T16:46:17.447Z,53.70
2024-05-09T16:48:52.563Z,53.73
2024-05-09T16:51:27.167Z,53.26
2024-05-09T16:54:02.402Z,53.36
2024-05-09T16:56:36.032Z,54.23
2024-05-09T16:59:11.863Z,54.22
2024-05-09T17:01:45.283Z,54.00
2024-05-09T17:04:19.347Z,53.98
2024-05-09T17:06:55.087Z,54.33
2024-05-09T17:09:28.854Z,54.45
2024-05-09T17:12:05.672Z,54.37
2024-05-09T17:14:39.283Z,54.44
2024-05-09T17:17:13.445Z,54.12
2024-05-09T17:19:49.585Z,54.27
2024-05-09T17:22:22.345Z,53.93
2024-05-09T17:24:55.558Z,53.91
2024-05-09T17:27:32.270Z,54.03
2024-05-09T17:30:24.053Z,54.35
2024-05-09T17:33:03.643Z,54.79
2024-05-09T17:35:38.853Z,54.74
2024-05-09T17:38:12.383Z,54.94
2024-05-09T17:40:46.226Z,55.21
2024-05-09T17:43:19.946Z,55.49
2024-05-09T17:45:53.641Z,55.80
2024-05-09T17:48:26.601Z,55.64
2024-05-09T17:51:02.187Z,55.60
2024-05-09T17:53:35.483Z,55.70
2024-05-09T17:56:09.489Z,55.82
2024-05-09T17:58:42.402Z,56.20
2024-05-09T18:01:15.488Z,56.45
2024-05-09T18:03:50.272Z,56.57
2024-05-09T18:06:23.335Z,56.32
2024-05-09T18:08:56.138Z,56.27
2024-05-09T18:11:31.787Z,56.58
2024-05-09T18:14:06.891Z,56.96
2024-05-09T18:16:39.668Z,57.26
2024-05-09T18:19:13.181Z,57.16
2024-05-09T18:21:46.346Z,57.30
2024-05-09T18:24:22.112Z,57.34
2024-05-09T18:26:54.950Z,57.48
2024-05-09T18:29:27.668Z,57.53
2024-05-09T18:32:02.697Z,57.59
2024-05-09T18:34:37.133Z,57.63
2024-05-09T18:37:10.581Z,58.48
2024-05-09T18:39:43.667Z,58.88
2024-05-09T18:42:17.523Z,58.15
2024-05-09T18:44:50.914Z,58.17
2024-05-09T18:47:24.088Z,58.16
2024-05-09T18:49:57.088Z,58.40
2024-05-09T18:52:32.346Z,58.58
2024-05-09T18:55:09.232Z,58.79
2024-05-09T18:57:42.424Z,58.81
2024-05-09T19:00:30.740Z,58.91
2024-05-09T19:03:11.350Z,59.17
2024-05-09T19:05:47.340Z,59.64
2024-05-09T19:08:20.703Z,59.72
2024-05-09T19:10:54.305Z,59.68
2024-05-09T19:13:27.500Z,60.16
2024-05-09T19:16:06.379Z,60.41
2024-05-09T19:18:40.923Z,60.86
2024-05-09T19:21:15.433Z,60.99
2024-05-09T19:23:52.296Z,61.31
2024-05-09T19:26:26.332Z,61.43
2024-05-09T19:29:00.174Z,61.43
2024-05-09T19:31:38.778Z,61.89
2024-05-09T19:34:12.032Z,62.32
2024-05-09T19:36:45.164Z,63.15
2024-05-09T19:39:21.908Z,63.41
2024-05-09T19:42:03.443Z,63.46
2024-05-09T19:44:38.643Z,63.69
2024-05-09T19:47:14.065Z,64.86
2024-05-09T19:49:50.114Z,65.13
2024-05-09T19:52:30.767Z,65.46
2024-05-09T19:55:06.221Z,66.08
2024-05-09T19:57:40.068Z,66.48
2024-05-09T20:00:21.524Z,66.47
2024-05-09T20:02:56.510Z,66.08
2024-05-09T20:05:32.257Z,66.40
2024-05-09T20:08:10.392Z,66.88
2024-05-09T20:10:43.936Z,66.50
2024-05-09T20:13:17.679Z,66.33
2024-05-09T20:15:50.745Z,67.16
2024-05-09T20:18:23.657Z,67.15
2024-05-09T20:20:57.286Z,67.65
2024-05-09T20:23:33.088Z,68.12
2024-05-09T20:26:06.661Z,69.34
2024-05-09T20:28:39.744Z,69.98
2024-05-09T20:31:12.752Z,70.30
2024-05-09T20:33:45.775Z,70.51
2024-05-09T20:36:18.575Z,71.28
2024-05-09T20:38:51.302Z,71.34
2024-05-09T20:41:24.117Z,71.48
2024-05-09T20:44:01.204Z,71.86
2024-05-09T20:46:34.467Z,71.84
2024-05-09T20:49:07.704Z,72.07
2024-05-09T20:51:40.538Z,72.58
2024-05-09T20:54:13.813Z,72.75
2024-05-09T20:56:46.449Z,72.71
2024-05-09T20:59:25.827Z,72.39
2024-05-09T21:01:58.855Z,72.08
2024-05-09T21:04:35.111Z,72.00
2024-05-09T21:07:08.114Z,71.94
2024-05-09T21:09:40.954Z,71.87
2024-05-09T21:12:15.000Z,72.40
2024-05-09T21:14:47.903Z,72.45
2024-05-09T21:17:20.844Z,73.66
2024-05-09T21:19:54.245Z,73.43
2024-05-09T21:22:27.546Z,73.60
2024-05-09T21:25:01.291Z,73.39
2024-05-09T21:27:39.402Z,74.06
2024-05-09T21:30:18.763Z,74.28
2024-05-09T21:33:05.161Z,74.41
2024-05-09T21:35:38.331Z,74.89
2024-05-09T21:38:11.500Z,74.72
2024-05-09T21:40:45.426Z,75.09
2024-05-09T21:43:18.861Z,75.78
2024-05-09T21:45:54.054Z,76.21
2024-05-09T21:48:27.905Z,76.25
2024-05-09T21:51:03.816Z,76.60
2024-05-09T21:53:37.884Z,76.76
2024-05-09T21:56:11.714Z,76.39
2024-05-09T21:58:44.538Z,76.62
2024-05-09T22:01:17.756Z,77.38
2024-05-09T22:03:50.649Z,77.85
2024-05-09T22:06:23.228Z,77.87
2024-05-09T22:08:55.965Z,78.11
2024-05-09T22:11:28.962Z,78.40
2024-05-09T22:14:04.511Z,78.28
2024-05-09T22:16:40.852Z,78.76
2024-05-09T22:19:13.706Z,79.22
2024-05-09T22:21:46.362Z,79.81
2024-05-09T22:24:19.070Z,80.01
2024-05-09T22:26:53.643Z,79.92
2024-05-09T22:29:26.416Z,80.21
2024-05-09T22:31:59.149Z,80.42
2024-05-09T22:34:35.386Z,80.64
2024-05-09T22:37:09.192Z,80.62
2024-05-09T22:39:42.623Z,80.96
2024-05-09T22:42:15.312Z,81.25
2024-05-09T22:44:48.067Z,81.97
2024-05-09T22:47:21.018Z,82.05
2024-05-09T22:49:55.124Z,82.35
2024-05-09T22:52:27.843Z,81.94
2024-05-09T22:55:05.035Z,81.90
2024-05-09T22:57:37.933Z,82.07
2024-05-09T23:00:15.847Z,82.09
2024-05-09T23:02:48.999Z,81.99
2024-05-09T23:05:21.997Z,82.44
2024-05-09T23:07:55.016Z,82.51
2024-05-09T23:10:35.059Z,82.82
2024-05-09T23:13:10.056Z,82.77
2024-05-09T23:15:42.716Z,83.22
2024-05-09T23:18:15.847Z,83.30
2024-05-09T23:20:48.488Z,83.62
2024-05-09T23:23:21.557Z,83.71
2024-05-09T23:25:54.140Z,83.77
2024-05-09T23:28:26.996Z,84.07
2024-05-09T23:31:02.473Z,84.26
2024-05-09T23:33:38.626Z,84.59
2024-05-09T23:36:11.778Z,84.95
2024-05-09T23:38:44.740Z,85.11
2024-05-09T23:41:17.490Z,85.28
2024-05-09T23:43:50.235Z,85.66
2024-05-09T23:46:23.062Z,85.53
2024-05-09T23:48:55.840Z,85.72
2024-05-09T23:51:28.515Z,85.93
2024-05-09T23:54:07.897Z,86.36
2024-05-09T23:56:40.437Z,86.61
2024-05-09T23:59:13.151Z,86.71
